createdAt,value
2023-02-06T00:01:28.044Z,4.30
2023-02-06T00:03:56.144Z,4.40
2023-02-06T00:06:25.684Z,4.40
2023-02-06T00:08:54.046Z,4.50
2023-02-06T00:11:22.201Z,4.50
2023-02-06T00:13:50.836Z,4.50
2023-02-06T00:16:21.491Z,4.50
2023-02-06T00:18:50.287Z,4.50
2023-02-06T00:21:21.725Z,4.60
2023-02-06T00:23:51.824Z,4.60
2023-02-06T00:26:20.341Z,4.50
2023-02-06T00:28:48.817Z,4.60
2023-02-06T00:31:17.539Z,4.60
2023-02-06T00:33:45.723Z,4.60
2023-02-06T00:36:13.920Z,4.60
2023-02-06T00:38:41.986Z,4.60
2023-02-06T00:41:11.622Z,4.60
2023-02-06T00:43:40.906Z,4.60
2023-02-06T00:46:09.088Z,4.60
2023-02-06T00:48:37.948Z,4.60
2023-02-06T00:51:06.499Z,4.60
2023-02-06T00:53:35.045Z,4.60
2023-02-06T00:56:03.221Z,4.60
2023-02-06T00:58:32.706Z,4.60
2023-02-06T01:01:00.877Z,4.50
2023-02-06T01:03:29.203Z,4.50
2023-02-06T01:05:57.355Z,4.50
2023-02-06T01:08:25.555Z,4.50
2023-02-06T01:10:53.945Z,4.40
2023-02-06T01:13:22.428Z,4.50
2023-02-06T01:15:51.966Z,4.50
2023-02-06T01:18:20.108Z,4.40
2023-02-06T01:20:48.303Z,4.50
2023-02-06T01:23:16.410Z,4.50
2023-02-06T01:25:44.512Z,4.50
2023-02-06T01:28:12.609Z,4.40
2023-02-06T01:30:40.951Z,4.40
2023-02-06T01:33:10.648Z,4.40
2023-02-06T01:35:38.708Z,4.40
2023-02-06T01:38:06.789Z,4.40
2023-02-06T01:40:34.895Z,4.30
2023-02-06T01:43:03.146Z,4.30
2023-02-06T01:45:41.167Z,4.30
2023-02-06T01:48:14.615Z,4.40
2023-02-06T01:50:47.569Z,4.30
2023-02-06T01:53:17.676Z,4.30
2023-02-06T01:55:47.998Z,4.30
2023-02-06T01:58:20.670Z,4.30
2023-02-06T02:00:49.829Z,4.30
2023-02-06T02:03:19.627Z,4.30
2023-02-06T02:05:49.982Z,4.30
2023-02-06T02:08:23.258Z,4.30
2023-02-06T02:10:51.562Z,4.30
2023-02-06T02:13:19.808Z,4.30
2023-02-06T02:15:59.763Z,4.20
2023-02-06T02:18:41.881Z,4.20
2023-02-06T02:21:49.672Z,4.20
2023-02-06T02:24:26.402Z,4.20
2023-02-06T02:27:14.673Z,4.10
2023-02-06T02:30:24.626Z,4.20
2023-02-06T02:33:28.950Z,4.20
2023-02-06T02:36:06.091Z,4.20
2023-02-06T02:38:43.024Z,4.10
2023-02-06T02:41:16.690Z,4.10
2023-02-06T02:43:51.132Z,4.10
2023-02-06T02:46:24.667Z,4.10
2023-02-06T02:48:55.777Z,4.00
2023-02-06T02:51:26.026Z,4.00
2023-02-06T02:53:56.919Z,4.00
2023-02-06T02:56:27.223Z,3.90
2023-02-06T02:59:00.348Z,4.00
2023-02-06T03:01:32.076Z,3.90
2023-02-06T03:04:04.997Z,3.90
2023-02-06T03:06:53.408Z,3.90
2023-02-06T03:09:33.812Z,3.80
2023-02-06T03:12:11.443Z,3.70
2023-02-06T03:14:45.356Z,3.70
2023-02-06T03:17:19.711Z,3.70
2023-02-06T03:19:54.759Z,3.60
2023-02-06T03:22:25.665Z,3.60
2023-02-06T03:24:55.657Z,3.50
2023-02-06T03:27:25.536Z,3.40
2023-02-06T03:29:55.211Z,3.40
2023-02-06T03:32:26.716Z,3.30
2023-02-06T03:34:59.634Z,3.30
2023-02-06T03:37:30.704Z,3.20
2023-02-06T03:40:01.395Z,3.10
2023-02-06T03:42:31.606Z,3.10
2023-02-06T03:45:04.623Z,3.10
2023-02-06T03:47:34.789Z,3.00
2023-02-06T03:50:04.931Z,3.00
2023-02-06T03:52:38.527Z,2.90
2023-02-06T03:55:10.917Z,2.90
2023-02-06T03:57:40.194Z,2.80
2023-02-06T04:00:09.917Z,2.80
2023-02-06T04:02:39.427Z,2.80
2023-02-06T04:05:08.136Z,2.80
2023-02-06T04:07:39.061Z,2.70
2023-02-06T04:10:07.739Z,2.70
2023-02-06T04:12:35.871Z,2.60
2023-02-06T04:15:04.373Z,2.60
2023-02-06T04:17:49.631Z,2.60
2023-02-06T04:20:18.329Z,2.60
2023-02-06T04:22:47.971Z,2.60
2023-02-06T04:25:16.323Z,2.60
2023-02-06T04:27:44.528Z,2.60
2023-02-06T04:30:13.996Z,2.60
2023-02-06T04:32:42.162Z,2.60
2023-02-06T04:35:12.793Z,2.60
2023-02-06T04:37:40.956Z,2.60
2023-02-06T04:40:11.945Z,2.70
2023-02-06T04:42:40.286Z,2.70
2023-02-06T04:45:09.580Z,2.70
2023-02-06T04:47:38.196Z,2.80
2023-02-06T04:50:07.232Z,2.80
2023-02-06T04:52:35.536Z,2.80
2023-02-06T04:55:03.834Z,2.80
2023-02-06T04:57:33.295Z,2.80
2023-02-06T05:00:01.386Z,2.70
2023-02-06T05:02:29.601Z,2.70
2023-02-06T05:04:57.888Z,2.70
2023-02-06T05:07:26.182Z,2.70
2023-02-06T05:09:54.266Z,2.70
2023-02-06T05:12:22.378Z,2.70
2023-02-06T05:14:52.178Z,2.70
2023-02-06T05:17:20.429Z,2.70
2023-02-06T05:19:48.593Z,2.70
2023-02-06T05:22:16.712Z,2.70
2023-02-06T05:24:44.857Z,2.70
2023-02-06T05:27:12.952Z,2.70
2023-02-06T05:29:41.136Z,2.60
2023-02-06T05:32:10.839Z,2.60
2023-02-06T05:34:38.971Z,2.60
2023-02-06T05:37:07.216Z,2.60
2023-02-06T05:39:35.390Z,2.50
2023-02-06T05:42:03.561Z,2.50
2023-02-06T05:44:32.002Z,2.50
2023-02-06T05:47:00.172Z,2.50
2023-02-06T05:49:29.669Z,2.50
2023-02-06T05:51:57.750Z,2.50
2023-02-06T05:54:26.185Z,2.40
2023-02-06T05:56:54.319Z,2.40
2023-02-06T05:59:22.575Z,2.50
2023-02-06T06:01:52.074Z,2.40
2023-02-06T06:04:20.319Z,2.40
2023-02-06T06:06:49.946Z,2.40
2023-02-06T06:09:18.262Z,2.40
2023-02-06T06:11:46.336Z,2.40
2023-02-06T06:14:14.488Z,2.50
2023-02-06T06:16:42.782Z,2.40
2023-02-06T06:19:11.226Z,2.50
2023-02-06T06:21:39.453Z,2.50
2023-02-06T06:24:09.282Z,2.50
2023-02-06T06:26:37.978Z,2.60
2023-02-06T06:29:06.205Z,2.60
2023-02-06T06:31:34.473Z,2.60
2023-02-06T06:34:02.738Z,2.60
2023-02-06T06:36:30.988Z,2.60
2023-02-06T06:38:59.121Z,2.60
2023-02-06T06:41:28.868Z,2.60
2023-02-06T06:43:57.663Z,2.50
2023-02-06T06:46:26.631Z,2.60
2023-02-06T06:48:54.838Z,2.60
2023-02-06T06:51:23.212Z,2.60
2023-02-06T06:53:51.447Z,2.60
2023-02-06T06:56:19.548Z,2.60
2023-02-06T06:58:50.162Z,2.60
2023-02-06T07:01:18.777Z,2.60
2023-02-06T07:03:48.419Z,2.60
2023-02-06T07:06:16.917Z,2.60
2023-02-06T07:08:45.425Z,2.60
2023-02-06T07:11:15.816Z,2.60
2023-02-06T07:13:44.469Z,2.60
2023-02-06T07:16:14.286Z,2.60
2023-02-06T07:18:43.058Z,2.60
2023-02-06T07:21:11.770Z,2.60
2023-02-06T07:23:40.244Z,2.60
2023-02-06T07:26:09.141Z,2.60
2023-02-06T07:28:37.701Z,2.60
2023-02-06T07:31:07.578Z,2.60
2023-02-06T07:33:37.137Z,2.60
2023-02-06T07:36:05.555Z,2.70
2023-02-06T07:38:33.728Z,2.70
2023-02-06T07:41:02.810Z,2.80
2023-02-06T07:43:31.456Z,2.80
2023-02-06T07:46:01.834Z,2.90
2023-02-06T07:48:30.420Z,2.90
2023-02-06T07:51:05.834Z,3.00
2023-02-06T07:53:34.022Z,3.00
2023-02-06T07:56:02.412Z,3.00
2023-02-06T07:58:30.565Z,3.00
2023-02-06T08:01:00.747Z,3.10
2023-02-06T08:03:28.900Z,3.10
2023-02-06T08:05:57.042Z,3.10
2023-02-06T08:08:26.629Z,3.10
2023-02-06T08:10:54.820Z,3.10
2023-02-06T08:13:22.996Z,3.20
2023-02-06T08:15:51.068Z,3.20
2023-02-06T08:18:19.074Z,3.30
2023-02-06T08:20:47.325Z,3.40
2023-02-06T08:23:15.439Z,3.40
2023-02-06T08:25:44.934Z,3.40
2023-02-06T08:28:15.038Z,3.50
2023-02-06T08:30:43.325Z,3.50
2023-02-06T08:33:11.513Z,3.60
2023-02-06T08:35:39.626Z,3.60
2023-02-06T08:38:07.815Z,3.60
2023-02-06T08:40:35.921Z,3.70
2023-02-06T08:43:05.438Z,3.80
2023-02-06T08:45:34.072Z,3.90
2023-02-06T08:48:02.257Z,3.90
2023-02-06T08:50:30.331Z,3.90
2023-02-06T08:52:59.239Z,4.00
2023-02-06T08:55:27.410Z,4.00
2023-02-06T08:57:55.703Z,4.10
2023-02-06T09:00:25.234Z,4.10
2023-02-06T09:02:53.787Z,4.20
2023-02-06T09:05:22.635Z,4.20
2023-02-06T09:07:50.954Z,4.30
2023-02-06T09:10:27.402Z,4.30
2023-02-06T09:12:55.779Z,4.40
2023-02-06T09:15:25.192Z,4.40
2023-02-06T09:17:54.800Z,4.60
2023-02-06T09:20:26.521Z,4.70
2023-02-06T09:22:54.742Z,4.70
2023-02-06T09:25:22.755Z,4.80
2023-02-06T09:27:50.828Z,4.90
2023-02-06T09:30:19.182Z,5.00
2023-02-06T09:32:48.828Z,5.10
2023-02-06T09:35:17.055Z,5.20
2023-02-06T09:37:45.166Z,5.20
2023-02-06T09:40:16.213Z,5.30
2023-02-06T09:42:45.034Z,5.40
2023-02-06T09:45:16.602Z,5.50
2023-02-06T09:47:50.995Z,5.60
2023-02-06T09:50:25.667Z,5.70
2023-02-06T09:53:04.575Z,5.80
2023-02-06T09:55:39.971Z,5.90
2023-02-06T09:58:17.079Z,6.00
2023-02-06T10:00:51.886Z,6.10
2023-02-06T10:03:56.473Z,6.20
2023-02-06T10:06:28.079Z,6.40
2023-02-06T10:09:03.437Z,6.50
2023-02-06T10:11:46.002Z,6.50
2023-02-06T10:14:22.324Z,6.70
2023-02-06T10:16:54.736Z,6.70
2023-02-06T10:19:35.783Z,6.80
2023-02-06T10:22:07.590Z,6.90
2023-02-06T10:24:42.811Z,7.10
2023-02-06T10:27:12.911Z,7.20
2023-02-06T10:29:42.689Z,7.30
2023-02-06T10:32:27.072Z,7.30
2023-02-06T10:35:13.724Z,7.40
2023-02-06T10:38:10.129Z,7.40
2023-02-06T10:40:47.870Z,7.30
2023-02-06T10:43:24.140Z,7.30
2023-02-06T10:45:58.498Z,7.30
2023-02-06T10:48:33.025Z,7.40
2023-02-06T10:51:14.911Z,7.80
2023-02-06T10:53:49.877Z,8.30
2023-02-06T10:56:22.753Z,8.50
2023-02-06T10:58:55.557Z,8.70
2023-02-06T11:01:27.024Z,8.60
2023-02-06T11:04:00.990Z,8.80
2023-02-06T11:06:31.631Z,8.80
2023-02-06T11:08:59.996Z,8.90
2023-02-06T11:11:30.820Z,9.10
2023-02-06T11:14:04.954Z,9.20
2023-02-06T11:16:37.666Z,9.40
2023-02-06T11:19:18.508Z,9.40
2023-02-06T11:21:51.613Z,9.50
2023-02-06T11:24:21.982Z,9.60
2023-02-06T11:26:52.968Z,9.60
2023-02-06T11:29:23.283Z,9.80
2023-02-06T11:31:56.939Z,9.80
2023-02-06T11:34:28.727Z,10.00
2023-02-06T11:37:00.181Z,10.20
2023-02-06T11:39:31.706Z,10.20
2023-02-06T11:42:02.510Z,10.20
2023-02-06T11:44:39.184Z,10.30
2023-02-06T11:47:37.153Z,10.30
2023-02-06T11:50:24.432Z,10.00
2023-02-06T11:53:00.610Z,9.70
2023-02-06T11:55:31.501Z,9.90
2023-02-06T11:58:08.105Z,10.00
2023-02-06T12:00:38.172Z,10.30
2023-02-06T12:03:07.667Z,10.20
2023-02-06T12:05:42.959Z,10.40
2023-02-06T12:08:15.580Z,10.30
2023-02-06T12:10:59.920Z,10.20
2023-02-06T12:13:31.690Z,10.50
2023-02-06T12:16:02.840Z,10.50
2023-02-06T12:18:37.474Z,10.50
2023-02-06T12:21:08.588Z,10.30
2023-02-06T12:23:43.778Z,10.40
2023-02-06T12:26:15.655Z,10.50
2023-02-06T12:28:51.352Z,10.10
2023-02-06T12:31:23.984Z,10.40
2023-02-06T12:33:55.194Z,10.60
2023-02-06T12:36:26.381Z,10.80
2023-02-06T12:39:00.762Z,10.60
2023-02-06T12:41:49.548Z,10.10
2023-02-06T12:47:35.459Z,9.80
2023-02-06T12:50:10.444Z,10.00
2023-02-06T12:52:45.924Z,9.90
2023-02-06T12:55:22.269Z,10.30
2023-02-06T12:57:50.757Z,10.60
2023-02-06T13:00:44.951Z,10.60
2023-02-06T13:03:29.773Z,10.10
2023-02-06T13:06:04.646Z,10.20
2023-02-06T13:08:43.095Z,9.90
2023-02-06T13:11:23.752Z,9.60
2023-02-06T13:14:01.848Z,9.30
2023-02-06T13:16:43.711Z,9.60
2023-02-06T13:19:24.327Z,10.30
2023-02-06T13:21:54.016Z,10.40
2023-02-06T13:24:22.477Z,10.40
2023-02-06T13:27:25.710Z,10.40
2023-02-06T13:29:54.823Z,10.40
2023-02-06T13:32:32.428Z,10.50
2023-02-06T13:35:15.411Z,10.70
2023-02-06T13:37:48.212Z,10.70
2023-02-06T13:40:30.380Z,10.80
2023-02-06T13:43:04.045Z,11.10
2023-02-06T13:45:36.943Z,10.60
2023-02-06T13:48:38.586Z,10.20
2023-02-06T13:51:28.921Z,10.00
2023-02-06T13:54:30.032Z,9.80
2023-02-06T13:57:39.431Z,9.70
2023-02-06T14:00:16.425Z,9.60
2023-02-06T14:02:48.601Z,10.10
2023-02-06T14:05:22.026Z,10.30
2023-02-06T14:08:07.179Z,10.30
2023-02-06T14:10:54.098Z,10.20
2023-02-06T14:13:46.047Z,10.00
2023-02-06T14:16:30.536Z,9.90
2023-02-06T14:19:02.923Z,9.60
2023-02-06T14:21:41.178Z,9.40
2023-02-06T14:24:40.501Z,9.20
2023-02-06T14:27:22.573Z,9.20
2023-02-06T14:29:59.285Z,9.20
2023-02-06T14:32:42.574Z,9.30
2023-02-06T14:35:26.759Z,9.40
2023-02-06T14:38:14.909Z,9.20
2023-02-06T14:40:45.045Z,9.40
2023-02-06T14:43:18.663Z,9.40
2023-02-06T14:46:05.418Z,9.50
2023-02-06T14:48:41.093Z,9.50
2023-02-06T14:51:19.250Z,9.30
2023-02-06T14:53:54.016Z,9.30
2023-02-06T14:56:28.749Z,9.30
2023-02-06T14:58:57.269Z,9.30
2023-02-06T15:01:28.957Z,9.20
2023-02-06T15:04:12.548Z,9.20
2023-02-06T15:06:43.618Z,9.00
2023-02-06T15:09:25.221Z,9.00
2023-02-06T15:11:54.536Z,9.00
2023-02-06T15:14:24.937Z,9.10
2023-02-06T15:16:56.828Z,9.00
2023-02-06T15:19:29.694Z,9.10
2023-02-06T15:22:01.720Z,9.10
2023-02-06T15:24:42.684Z,9.10
2023-02-06T15:27:20.724Z,9.10
2023-02-06T15:29:50.727Z,9.10
2023-02-06T15:32:26.914Z,9.00
2023-02-06T15:34:56.802Z,8.90
2023-02-06T15:37:29.185Z,8.80
2023-02-06T15:40:02.437Z,8.70
2023-02-06T15:42:30.733Z,8.70
2023-02-06T15:44:59.130Z,8.70
2023-02-06T15:47:27.435Z,8.60
2023-02-06T15:50:00.349Z,8.70
2023-02-06T15:52:39.489Z,8.70
2023-02-06T15:55:07.920Z,8.60
2023-02-06T15:57:40.753Z,8.60
2023-02-06T16:00:23.534Z,8.60
2023-02-06T16:02:53.624Z,8.60
2023-02-06T16:05:29.773Z,8.60
2023-02-06T16:07:58.554Z,8.60
2023-02-06T16:10:27.611Z,8.60
2023-02-06T16:12:57.433Z,8.50
2023-02-06T16:15:28.866Z,8.50
2023-02-06T16:17:57.211Z,8.50
2023-02-06T16:20:33.629Z,8.40
2023-02-06T16:23:23.307Z,8.40
2023-02-06T16:26:01.952Z,8.50
2023-02-06T16:28:30.760Z,8.40
2023-02-06T16:31:01.704Z,8.50
2023-02-06T16:33:37.393Z,8.40
2023-02-06T16:36:07.783Z,8.40
2023-02-06T16:38:36.101Z,8.40
2023-02-06T16:41:04.387Z,8.30
2023-02-06T16:43:32.966Z,8.20
2023-02-06T16:46:02.253Z,8.20
2023-02-06T16:48:30.539Z,8.10
2023-02-06T16:51:00.075Z,8.10
2023-02-06T16:53:30.161Z,8.10
2023-02-06T16:55:58.915Z,8.10
2023-02-06T16:58:30.202Z,8.00
2023-02-06T17:00:58.547Z,8.00
2023-02-06T17:03:26.589Z,8.00
2023-02-06T17:05:54.785Z,8.00
2023-02-06T17:08:25.688Z,8.00
2023-02-06T17:10:55.155Z,7.90
2023-02-06T17:13:25.225Z,7.80
2023-02-06T17:15:54.275Z,7.80
2023-02-06T17:18:23.562Z,7.70
2023-02-06T17:20:53.982Z,7.60
2023-02-06T17:23:22.134Z,7.50
2023-02-06T17:25:52.089Z,7.40
2023-02-06T17:28:21.890Z,7.30
2023-02-06T17:30:50.986Z,7.20
2023-02-06T17:33:19.771Z,7.10
2023-02-06T17:35:49.416Z,7.00
2023-02-06T17:38:17.724Z,6.80
2023-02-06T17:40:46.082Z,6.70
2023-02-06T17:43:14.273Z,6.60
2023-02-06T17:45:43.932Z,6.60
2023-02-06T17:48:11.992Z,6.50
2023-02-06T17:50:41.362Z,6.40
2023-02-06T17:53:12.535Z,6.30
2023-02-06T17:55:40.936Z,6.20
2023-02-06T17:58:09.409Z,6.20
2023-02-06T18:00:37.962Z,6.10
2023-02-06T18:03:07.879Z,6.00
2023-02-06T18:05:36.282Z,5.90
2023-02-06T18:08:04.727Z,5.90
2023-02-06T18:10:32.949Z,5.80
2023-02-06T18:13:01.565Z,5.70
2023-02-06T18:15:31.807Z,5.70
2023-02-06T18:18:00.175Z,5.60
2023-02-06T18:20:30.140Z,5.60
2023-02-06T18:22:58.302Z,5.50
2023-02-06T18:25:26.408Z,5.50
2023-02-06T18:27:54.614Z,5.40
2023-02-06T18:30:22.930Z,5.40
2023-02-06T18:32:51.010Z,5.30
2023-02-06T18:35:19.899Z,5.30
2023-02-06T18:37:50.127Z,5.20
2023-02-06T18:40:18.472Z,5.20
2023-02-06T18:42:51.481Z,5.20
2023-02-06T18:45:19.850Z,5.10
2023-02-06T18:47:48.474Z,5.10
2023-02-06T18:50:17.317Z,5.10
2023-02-06T18:52:45.557Z,5.00
2023-02-06T18:55:16.407Z,5.00
2023-02-06T18:57:44.688Z,4.90
2023-02-06T19:00:16.491Z,4.90
2023-02-06T19:02:44.757Z,4.90
2023-02-06T19:05:13.020Z,4.80
2023-02-06T19:07:41.210Z,4.80
2023-02-06T19:10:13.011Z,4.70
2023-02-06T19:12:42.894Z,4.60
2023-02-06T19:15:12.150Z,4.60
2023-02-06T19:17:40.481Z,4.60
2023-02-06T19:20:10.125Z,4.60
2023-02-06T19:22:39.694Z,4.50
2023-02-06T19:25:13.356Z,4.50
2023-02-06T19:27:43.854Z,4.40
2023-02-06T19:30:13.870Z,4.40
2023-02-06T19:32:42.344Z,4.30
2023-02-06T19:35:12.021Z,4.30
2023-02-06T19:37:40.191Z,4.30
2023-02-06T19:40:09.005Z,4.20
2023-02-06T19:42:37.135Z,4.10
2023-02-06T19:45:07.332Z,4.10
2023-02-06T19:47:35.852Z,4.00
2023-02-06T19:50:04.105Z,4.00
2023-02-06T19:52:35.256Z,3.90
2023-02-06T19:55:03.984Z,3.90
2023-02-06T19:57:32.063Z,3.90
2023-02-06T20:00:00.181Z,3.80
2023-02-06T20:02:29.718Z,3.80
2023-02-06T20:04:57.962Z,3.80
2023-02-06T20:07:26.170Z,3.80
2023-02-06T20:09:55.872Z,3.70
2023-02-06T20:12:24.029Z,3.70
2023-02-06T20:14:52.434Z,3.70
2023-02-06T20:17:21.676Z,3.70
2023-02-06T20:19:51.299Z,3.70
2023-02-06T20:22:19.902Z,3.70
2023-02-06T20:24:48.239Z,3.70
2023-02-06T20:27:17.136Z,3.60
2023-02-06T20:29:45.936Z,3.60
2023-02-06T20:32:15.622Z,3.50
2023-02-06T20:34:43.962Z,3.50
2023-02-06T20:37:14.402Z,3.40
2023-02-06T20:39:42.490Z,3.30
2023-02-06T20:42:10.556Z,3.30
2023-02-06T20:44:39.294Z,3.30
2023-02-06T20:47:07.502Z,3.30
2023-02-06T20:49:35.598Z,3.30
2023-02-06T20:52:04.243Z,3.30
2023-02-06T20:54:33.855Z,3.20
2023-02-06T20:57:02.076Z,3.20
2023-02-06T20:59:30.626Z,3.10
2023-02-06T21:01:58.963Z,3.10
2023-02-06T21:04:27.206Z,3.10
2023-02-06T21:06:55.510Z,3.10
2023-02-06T21:09:23.684Z,3.00
2023-02-06T21:11:53.585Z,3.00
2023-02-06T21:14:21.935Z,3.00
2023-02-06T21:16:50.567Z,3.10
2023-02-06T21:19:20.971Z,3.10
2023-02-06T21:21:50.348Z,3.10
2023-02-06T21:24:19.752Z,3.00
2023-02-06T21:26:49.076Z,3.00
2023-02-06T21:29:18.769Z,3.00
2023-02-06T21:31:47.414Z,3.00
2023-02-06T21:34:18.149Z,3.00
2023-02-06T21:36:46.890Z,3.10
2023-02-06T21:39:18.103Z,3.10
2023-02-06T21:41:51.532Z,3.10
2023-02-06T21:44:21.362Z,3.10
2023-02-06T21:46:49.544Z,3.10
2023-02-06T21:49:17.807Z,3.10
2023-02-06T21:51:46.995Z,3.10
2023-02-06T21:54:15.127Z,3.20
2023-02-06T21:56:43.623Z,3.10
2023-02-06T21:59:13.251Z,3.10
2023-02-06T22:01:42.846Z,3.10
2023-02-06T22:04:12.403Z,3.00
2023-02-06T22:06:41.141Z,3.00
2023-02-06T22:09:12.666Z,3.00
2023-02-06T22:11:41.235Z,2.90
2023-02-06T22:14:12.447Z,2.90
2023-02-06T22:16:42.141Z,2.90
2023-02-06T22:19:11.794Z,2.80
2023-02-06T22:21:40.204Z,2.80
2023-02-06T22:24:09.351Z,2.80
2023-02-06T22:26:39.570Z,2.70
2023-02-06T22:29:09.031Z,2.70
2023-02-06T22:31:37.696Z,2.60
2023-02-06T22:34:11.771Z,2.60
2023-02-06T22:36:40.200Z,2.60
2023-02-06T22:39:12.509Z,2.50
2023-02-06T22:41:41.626Z,2.50
2023-02-06T22:44:11.618Z,2.40
2023-02-06T22:46:40.737Z,2.40
2023-02-06T22:49:11.247Z,2.30
2023-02-06T22:51:40.314Z,2.30
2023-02-06T22:54:09.754Z,2.30
2023-02-06T22:56:39.537Z,2.30
2023-02-06T22:59:11.296Z,2.20
2023-02-06T23:01:41.439Z,2.20
2023-02-06T23:04:14.992Z,2.10
2023-02-06T23:06:43.872Z,2.10
2023-02-06T23:09:15.085Z,2.10
2023-02-06T23:11:43.564Z,2.00
2023-02-06T23:14:13.889Z,1.90
2023-02-06T23:16:42.648Z,1.90
2023-02-06T23:19:14.346Z,1.90
2023-02-06T23:21:44.047Z,1.80
2023-02-06T23:24:13.331Z,1.80
2023-02-06T23:26:43.190Z,1.90
2023-02-06T23:29:15.716Z,2.00
2023-02-06T23:31:44.129Z,2.00
2023-02-06T23:34:14.514Z,2.00
2023-02-06T23:36:42.804Z,1.90
2023-02-06T23:39:12.046Z,1.90
2023-02-06T23:41:40.578Z,1.90
2023-02-06T23:44:09.863Z,1.90
2023-02-06T23:46:39.611Z,1.90
2023-02-06T23:49:08.337Z,1.90
2023-02-06T23:51:38.954Z,1.90
2023-02-06T23:54:08.816Z,1.80
2023-02-06T23:56:38.158Z,1.80
2023-02-06T23:59:07.141Z,1.80
